sensor_id;sensor_type;location;lat;lon;timestamp;pressure;altitude;pressure_sealevel;temperature
66795;BMP280;53698;52.738;4.752;2022-10-22T00:01:32;100953.00;;;15.74
66795;BMP280;53698;52.738;4.752;2022-10-22T00:03:57;100955.81;;;15.65
66795;BMP280;53698;52.738;4.752;2022-10-22T00:06:22;100951.66;;;15.70
66795;BMP280;53698;52.738;4.752;2022-10-22T00:08:48;100949.16;;;15.72
66795;BMP280;53698;52.738;4.752;2022-10-22T00:11:14;100945.31;;;15.64
66795;BMP280;53698;52.738;4.752;2022-10-22T00:13:40;100948.59;;;15.68
66795;BMP280;53698;52.738;4.752;2022-10-22T00:16:05;100940.84;;;15.66
66795;BMP280;53698;52.738;4.752;2022-10-22T00:18:31;100946.16;;;15.70
66795;BMP280;53698;52.738;4.752;2022-10-22T00:20:56;100941.78;;;15.63
66795;BMP280;53698;52.738;4.752;2022-10-22T00:23:22;100945.75;;;15.62
66795;BMP280;53698;52.738;4.752;2022-10-22T00:25:47;100949.94;;;15.58
66795;BMP280;53698;52.738;4.752;2022-10-22T00:28:12;100940.06;;;15.52
66795;BMP280;53698;52.738;4.752;2022-10-22T00:30:39;100946.53;;;15.49
66795;BMP280;53698;52.738;4.752;2022-10-22T00:33:04;100946.72;;;15.45
66795;BMP280;53698;52.738;4.752;2022-10-22T00:35:29;100947.09;;;15.39
66795;BMP280;53698;52.738;4.752;2022-10-22T00:37:55;100948.50;;;15.34
66795;BMP280;53698;52.738;4.752;2022-10-22T00:40:20;100954.44;;;15.33
66795;BMP280;53698;52.738;4.752;2022-10-22T00:42:45;100950.00;;;15.35
66795;BMP280;53698;52.738;4.752;2022-10-22T00:47:36;100952.66;;;15.30
66795;BMP280;53698;52.738;4.752;2022-10-22T00:50:04;100951.59;;;15.27
66795;BMP280;53698;52.738;4.752;2022-10-22T00:52:30;100959.66;;;15.31
66795;BMP280;53698;52.738;4.752;2022-10-22T00:54:56;100956.16;;;15.30
66795;BMP280;53698;52.738;4.752;2022-10-22T00:57:21;100955.97;;;15.34
66795;BMP280;53698;52.738;4.752;2022-10-22T00:59:47;100956.72;;;15.34
66795;BMP280;53698;52.738;4.752;2022-10-22T01:02:12;100965.56;;;15.38
66795;BMP280;53698;52.738;4.752;2022-10-22T01:04:39;100971.63;;;15.42
66795;BMP280;53698;52.738;4.752;2022-10-22T01:07:04;100966.41;;;15.44
66795;BMP280;53698;52.738;4.752;2022-10-22T01:09:40;100969.28;;;15.49
66795;BMP280;53698;52.738;4.752;2022-10-22T01:15:02;100975.44;;;15.59
66795;BMP280;53698;52.738;4.752;2022-10-22T01:22:41;100966.53;;;15.63
66795;BMP280;53698;52.738;4.752;2022-10-22T01:27:41;100972.44;;;15.71
66795;BMP280;53698;52.738;4.752;2022-10-22T01:30:10;100973.84;;;15.66
66795;BMP280;53698;52.738;4.752;2022-10-22T01:32:38;100973.09;;;15.66
66795;BMP280;53698;52.738;4.752;2022-10-22T01:35:06;100972.03;;;15.63
66795;BMP280;53698;52.738;4.752;2022-10-22T01:37:33;100967.56;;;15.66
66795;BMP280;53698;52.738;4.752;2022-10-22T01:40:01;100968.34;;;15.66
66795;BMP280;53698;52.738;4.752;2022-10-22T01:42:26;100963.59;;;15.67
66795;BMP280;53698;52.738;4.752;2022-10-22T01:44:52;100962.84;;;15.66
66795;BMP280;53698;52.738;4.752;2022-10-22T01:47:23;100955.72;;;15.74
66795;BMP280;53698;52.738;4.752;2022-10-22T01:49:55;100950.50;;;15.76
66795;BMP280;53698;52.738;4.752;2022-10-22T01:52:37;100947.38;;;15.83
66795;BMP280;53698;52.738;4.752;2022-10-22T01:55:13;100948.25;;;15.89
66795;BMP280;53698;52.738;4.752;2022-10-22T01:57:43;100951.09;;;15.94
66795;BMP280;53698;52.738;4.752;2022-10-22T02:00:13;100955.94;;;15.99
66795;BMP280;53698;52.738;4.752;2022-10-22T02:02:44;100951.47;;;16.01
66795;BMP280;53698;52.738;4.752;2022-10-22T02:05:13;100967.22;;;16.01
66795;BMP280;53698;52.738;4.752;2022-10-22T02:07:42;100957.28;;;16.03
66795;BMP280;53698;52.738;4.752;2022-10-22T02:10:08;100956.03;;;16.04
66795;BMP280;53698;52.738;4.752;2022-10-22T02:12:34;100959.06;;;16.06
66795;BMP280;53698;52.738;4.752;2022-10-22T02:15:01;100964.09;;;16.08
66795;BMP280;53698;52.738;4.752;2022-10-22T02:17:28;100956.50;;;16.17
66795;BMP280;53698;52.738;4.752;2022-10-22T02:19:59;100952.97;;;16.16
66795;BMP280;53698;52.738;4.752;2022-10-22T02:22:25;100960.78;;;16.18
66795;BMP280;53698;52.738;4.752;2022-10-22T02:24:50;100954.22;;;16.15
66795;BMP280;53698;52.738;4.752;2022-10-22T02:29:42;100957.44;;;16.14
66795;BMP280;53698;52.738;4.752;2022-10-22T02:32:10;100958.69;;;16.13
66795;BMP280;53698;52.738;4.752;2022-10-22T02:34:36;100958.75;;;16.18
66795;BMP280;53698;52.738;4.752;2022-10-22T02:37:02;100952.03;;;16.19
66795;BMP280;53698;52.738;4.752;2022-10-22T02:39:28;100960.38;;;16.25
66795;BMP280;53698;52.738;4.752;2022-10-22T02:41:54;100948.81;;;16.21
66795;BMP280;53698;52.738;4.752;2022-10-22T02:44:22;100951.63;;;16.26
66795;BMP280;53698;52.738;4.752;2022-10-22T02:46:47;100950.50;;;16.32
66795;BMP280;53698;52.738;4.752;2022-10-22T02:49:13;100951.72;;;16.31
66795;BMP280;53698;52.738;4.752;2022-10-22T02:51:38;100947.44;;;16.30
66795;BMP280;53698;52.738;4.752;2022-10-22T02:54:04;100945.00;;;16.32
66795;BMP280;53698;52.738;4.752;2022-10-22T02:56:29;100951.53;;;16.35
66795;BMP280;53698;52.738;4.752;2022-10-22T02:58:54;100952.28;;;16.35
66795;BMP280;53698;52.738;4.752;2022-10-22T03:01:19;100948.63;;;16.44
66795;BMP280;53698;52.738;4.752;2022-10-22T03:03:45;100948.09;;;16.40
66795;BMP280;53698;52.738;4.752;2022-10-22T03:06:10;100950.44;;;16.47
66795;BMP280;53698;52.738;4.752;2022-10-22T03:08:35;100949.19;;;16.47
66795;BMP280;53698;52.738;4.752;2022-10-22T03:11:01;100952.25;;;16.49
66795;BMP280;53698;52.738;4.752;2022-10-22T03:13:26;100959.06;;;16.54
66795;BMP280;53698;52.738;4.752;2022-10-22T03:15:51;100950.53;;;16.52
66795;BMP280;53698;52.738;4.752;2022-10-22T03:18:16;100947.75;;;16.52
66795;BMP280;53698;52.738;4.752;2022-10-22T03:20:42;100953.56;;;16.54
66795;BMP280;53698;52.738;4.752;2022-10-22T03:23:08;100949.75;;;16.51
66795;BMP280;53698;52.738;4.752;2022-10-22T03:25:33;100952.72;;;16.48
66795;BMP280;53698;52.738;4.752;2022-10-22T03:28:03;100956.72;;;16.47
66795;BMP280;53698;52.738;4.752;2022-10-22T03:30:29;100953.78;;;16.36
66795;BMP280;53698;52.738;4.752;2022-10-22T03:32:54;100949.03;;;16.37
66795;BMP280;53698;52.738;4.752;2022-10-22T03:35:20;100957.47;;;16.47
66795;BMP280;53698;52.738;4.752;2022-10-22T03:37:45;100952.84;;;16.39
66795;BMP280;53698;52.738;4.752;2022-10-22T03:40:11;100949.53;;;16.35
66795;BMP280;53698;52.738;4.752;2022-10-22T03:42:36;100959.97;;;16.31
66795;BMP280;53698;52.738;4.752;2022-10-22T03:45:02;100960.75;;;16.32
66795;BMP280;53698;52.738;4.752;2022-10-22T03:47:27;100965.50;;;16.31
66795;BMP280;53698;52.738;4.752;2022-10-22T03:49:52;100964.16;;;16.27
66795;BMP280;53698;52.738;4.752;2022-10-22T03:52:18;100964.25;;;16.32
66795;BMP280;53698;52.738;4.752;2022-10-22T03:54:43;100960.19;;;16.28
66795;BMP280;53698;52.738;4.752;2022-10-22T03:57:09;100961.69;;;16.29
66795;BMP280;53698;52.738;4.752;2022-10-22T03:59:35;100968.16;;;16.26
66795;BMP280;53698;52.738;4.752;2022-10-22T04:02:01;100966.66;;;16.25
66795;BMP280;53698;52.738;4.752;2022-10-22T04:04:26;100969.31;;;16.20
66795;BMP280;53698;52.738;4.752;2022-10-22T04:06:51;100969.50;;;16.16
66795;BMP280;53698;52.738;4.752;2022-10-22T04:09:17;100974.81;;;16.06
66795;BMP280;53698;52.738;4.752;2022-10-22T04:11:42;100972.63;;;16.10
66795;BMP280;53698;52.738;4.752;2022-10-22T04:14:07;100974.34;;;16.07
66795;BMP280;53698;52.738;4.752;2022-10-22T04:16:33;100972.84;;;16.06
66795;BMP280;53698;52.738;4.752;2022-10-22T04:18:58;100975.03;;;16.02
66795;BMP280;53698;52.738;4.752;2022-10-22T04:21:23;100988.47;;;16.00
66795;BMP280;53698;52.738;4.752;2022-10-22T04:23:50;100980.97;;;16.01
66795;BMP280;53698;52.738;4.752;2022-10-22T04:26:16;100983.94;;;15.97
66795;BMP280;53698;52.738;4.752;2022-10-22T04:28:42;100987.25;;;16.01
66795;BMP280;53698;52.738;4.752;2022-10-22T04:31:08;100982.03;;;16.03
66795;BMP280;53698;52.738;4.752;2022-10-22T04:33:33;100993.53;;;16.02
66795;BMP280;53698;52.738;4.752;2022-10-22T04:35:59;100988.84;;;15.94
66795;BMP280;53698;52.738;4.752;2022-10-22T04:38:24;100985.34;;;15.93
66795;BMP280;53698;52.738;4.752;2022-10-22T04:40:49;100986.03;;;16.02
66795;BMP280;53698;52.738;4.752;2022-10-22T04:43:14;100988.31;;;16.04
66795;BMP280;53698;52.738;4.752;2022-10-22T04:45:40;100997.50;;;16.01
66795;BMP280;53698;52.738;4.752;2022-10-22T04:48:05;100998.06;;;16.05
66795;BMP280;53698;52.738;4.752;2022-10-22T04:50:30;100993.81;;;16.04
66795;BMP280;53698;52.738;4.752;2022-10-22T04:52:56;101003.31;;;16.03
66795;BMP280;53698;52.738;4.752;2022-10-22T04:55:21;101002.81;;;16.04
66795;BMP280;53698;52.738;4.752;2022-10-22T04:57:46;100999.88;;;16.08
66795;BMP280;53698;52.738;4.752;2022-10-22T05:00:11;100993.53;;;16.02
66795;BMP280;53698;52.738;4.752;2022-10-22T05:02:37;100989.81;;;16.05
66795;BMP280;53698;52.738;4.752;2022-10-22T05:05:02;101001.31;;;16.03
66795;BMP280;53698;52.738;4.752;2022-10-22T05:07:28;100996.19;;;15.96
66795;BMP280;53698;52.738;4.752;2022-10-22T05:09:53;101002.03;;;15.90
66795;BMP280;53698;52.738;4.752;2022-10-22T05:12:18;101005.25;;;15.88
66795;BMP280;53698;52.738;4.752;2022-10-22T05:14:44;101006.94;;;15.86
66795;BMP280;53698;52.738;4.752;2022-10-22T05:17:09;101001.94;;;15.84
66795;BMP280;53698;52.738;4.752;2022-10-22T05:19:35;100991.13;;;15.81
66795;BMP280;53698;52.738;4.752;2022-10-22T05:22:01;101000.13;;;15.81
66795;BMP280;53698;52.738;4.752;2022-10-22T05:24:27;100994.34;;;15.79
66795;BMP280;53698;52.738;4.752;2022-10-22T05:26:53;101006.47;;;15.73
66795;BMP280;53698;52.738;4.752;2022-10-22T05:29:19;101001.94;;;15.70
66795;BMP280;53698;52.738;4.752;2022-10-22T05:31:45;101008.66;;;15.69
66795;BMP280;53698;52.738;4.752;2022-10-22T05:34:10;101009.31;;;15.64
66795;BMP280;53698;52.738;4.752;2022-10-22T05:36:35;101014.72;;;15.59
66795;BMP280;53698;52.738;4.752;2022-10-22T05:39:00;101014.59;;;15.54
66795;BMP280;53698;52.738;4.752;2022-10-22T05:41:26;101013.47;;;15.46
66795;BMP280;53698;52.738;4.752;2022-10-22T05:43:55;101019.69;;;15.46
66795;BMP280;53698;52.738;4.752;2022-10-22T05:46:22;101024.56;;;15.51
66795;BMP280;53698;52.738;4.752;2022-10-22T05:48:48;101026.63;;;15.42
66795;BMP280;53698;52.738;4.752;2022-10-22T05:51:13;101024.06;;;15.39
66795;BMP280;53698;52.738;4.752;2022-10-22T05:53:40;101023.94;;;15.33
66795;BMP280;53698;52.738;4.752;2022-10-22T05:56:12;101023.47;;;15.35
66795;BMP280;53698;52.738;4.752;2022-10-22T05:58:38;101032.75;;;15.37
66795;BMP280;53698;52.738;4.752;2022-10-22T06:01:17;101036.47;;;15.34
66795;BMP280;53698;52.738;4.752;2022-10-22T06:03:43;101033.59;;;15.29
66795;BMP280;53698;52.738;4.752;2022-10-22T06:08:39;101039.56;;;15.27
66795;BMP280;53698;52.738;4.752;2022-10-22T06:11:05;101038.31;;;15.28
66795;BMP280;53698;52.738;4.752;2022-10-22T06:13:30;101040.16;;;15.31
66795;BMP280;53698;52.738;4.752;2022-10-22T06:15:56;101044.31;;;15.27
66795;BMP280;53698;52.738;4.752;2022-10-22T06:18:22;101045.06;;;15.27
66795;BMP280;53698;52.738;4.752;2022-10-22T06:20:47;101057.56;;;15.28
66795;BMP280;53698;52.738;4.752;2022-10-22T06:23:12;101059.09;;;15.29
66795;BMP280;53698;52.738;4.752;2022-10-22T06:25:38;101062.16;;;15.31
66795;BMP280;53698;52.738;4.752;2022-10-22T06:28:04;101065.16;;;15.33
66795;BMP280;53698;52.738;4.752;2022-10-22T06:30:29;101064.94;;;15.45
66795;BMP280;53698;52.738;4.752;2022-10-22T06:32:54;101067.22;;;15.47
66795;BMP280;53698;52.738;4.752;2022-10-22T06:35:20;101069.00;;;15.50
66795;BMP280;53698;52.738;4.752;2022-10-22T06:37:45;101076.25;;;15.61
66795;BMP280;53698;52.738;4.752;2022-10-22T06:40:11;101076.25;;;15.61
66795;BMP280;53698;52.738;4.752;2022-10-22T06:42:36;101078.25;;;15.61
66795;BMP280;53698;52.738;4.752;2022-10-22T06:45:02;101075.50;;;15.61
66795;BMP280;53698;52.738;4.752;2022-10-22T06:47:27;101072.88;;;15.66
66795;BMP280;53698;52.738;4.752;2022-10-22T06:49:55;101081.69;;;15.70
66795;BMP280;53698;52.738;4.752;2022-10-22T06:52:20;101082.47;;;15.71
66795;BMP280;53698;52.738;4.752;2022-10-22T06:54:46;101083.03;;;15.75
66795;BMP280;53698;52.738;4.752;2022-10-22T06:57:11;101089.22;;;15.84
66795;BMP280;53698;52.738;4.752;2022-10-22T06:59:36;101097.44;;;15.93
66795;BMP280;53698;52.738;4.752;2022-10-22T07:02:02;101102.75;;;15.96
66795;BMP280;53698;52.738;4.752;2022-10-22T07:04:27;101093.38;;;16.02
66795;BMP280;53698;52.738;4.752;2022-10-22T07:06:55;101090.81;;;16.13
66795;BMP280;53698;52.738;4.752;2022-10-22T07:09:20;101087.97;;;16.22
66795;BMP280;53698;52.738;4.752;2022-10-22T07:11:46;101098.41;;;16.32
66795;BMP280;53698;52.738;4.752;2022-10-22T07:14:11;101102.03;;;16.24
66795;BMP280;53698;52.738;4.752;2022-10-22T07:16:37;101096.69;;;16.34
66795;BMP280;53698;52.738;4.752;2022-10-22T07:19:02;101106.88;;;16.29
66795;BMP280;53698;52.738;4.752;2022-10-22T07:21:28;101114.25;;;16.37
66795;BMP280;53698;52.738;4.752;2022-10-22T07:23:53;101114.25;;;16.37
66795;BMP280;53698;52.738;4.752;2022-10-22T07:26:19;101113.41;;;16.45
66795;BMP280;53698;52.738;4.752;2022-10-22T07:28:44;101118.34;;;16.41
66795;BMP280;53698;52.738;4.752;2022-10-22T07:31:10;101120.53;;;16.51
66795;BMP280;53698;52.738;4.752;2022-10-22T07:33:36;101124.34;;;16.54
66795;BMP280;53698;52.738;4.752;2022-10-22T07:36:02;101120.63;;;16.57
66795;BMP280;53698;52.738;4.752;2022-10-22T07:38:28;101133.34;;;16.54
66795;BMP280;53698;52.738;4.752;2022-10-22T07:40:53;101127.38;;;16.56
66795;BMP280;53698;52.738;4.752;2022-10-22T07:43:19;101129.38;;;16.55
66795;BMP280;53698;52.738;4.752;2022-10-22T07:45:44;101138.00;;;16.48
66795;BMP280;53698;52.738;4.752;2022-10-22T07:48:09;101140.88;;;16.54
66795;BMP280;53698;52.738;4.752;2022-10-22T07:50:35;101142.38;;;16.55
66795;BMP280;53698;52.738;4.752;2022-10-22T07:53:00;101152.75;;;16.60
66795;BMP280;53698;52.738;4.752;2022-10-22T07:55:25;101144.28;;;16.63
66795;BMP280;53698;52.738;4.752;2022-10-22T07:57:50;101158.16;;;16.68
66795;BMP280;53698;52.738;4.752;2022-10-22T08:00:16;101155.97;;;16.72
66795;BMP280;53698;52.738;4.752;2022-10-22T08:02:44;101155.28;;;16.77
66795;BMP280;53698;52.738;4.752;2022-10-22T08:05:09;101169.44;;;16.70
66795;BMP280;53698;52.738;4.752;2022-10-22T08:07:34;101169.44;;;16.70
66795;BMP280;53698;52.738;4.752;2022-10-22T08:09:59;101170.22;;;16.71
66795;BMP280;53698;52.738;4.752;2022-10-22T08:12:25;101171.44;;;16.84
66795;BMP280;53698;52.738;4.752;2022-10-22T08:14:50;101178.59;;;16.90
66795;BMP280;53698;52.738;4.752;2022-10-22T08:17:15;101170.38;;;17.10
66795;BMP280;53698;52.738;4.752;2022-10-22T08:19:41;101165.63;;;17.10
66795;BMP280;53698;52.738;4.752;2022-10-22T08:22:06;101169.28;;;17.35
66795;BMP280;53698;52.738;4.752;2022-10-22T08:24:31;101175.22;;;17.48
66795;BMP280;53698;52.738;4.752;2022-10-22T08:26:57;101175.72;;;17.66
66795;BMP280;53698;52.738;4.752;2022-10-22T08:29:22;101186.44;;;17.59
66795;BMP280;53698;52.738;4.752;2022-10-22T08:31:48;101182.91;;;17.58
66795;BMP280;53698;52.738;4.752;2022-10-22T08:34:13;101188.03;;;17.65
66795;BMP280;53698;52.738;4.752;2022-10-22T08:36:39;101183.31;;;17.71
66795;BMP280;53698;52.738;4.752;2022-10-22T08:39:04;101194.06;;;17.83
66795;BMP280;53698;52.738;4.752;2022-10-22T08:41:29;101195.22;;;17.96
66795;BMP280;53698;52.738;4.752;2022-10-22T08:48:51;101202.84;;;18.01
66795;BMP280;53698;52.738;4.752;2022-10-22T08:51:22;101211.25;;;18.12
66795;BMP280;53698;52.738;4.752;2022-10-22T08:56:13;101200.72;;;18.60
66795;BMP280;53698;52.738;4.752;2022-10-22T08:58:42;101209.53;;;18.58
66795;BMP280;53698;52.738;4.752;2022-10-22T09:01:11;101218.13;;;18.41
66795;BMP280;53698;52.738;4.752;2022-10-22T09:03:50;101207.22;;;18.57
66795;BMP280;53698;52.738;4.752;2022-10-22T09:06:18;101212.63;;;18.46
66795;BMP280;53698;52.738;4.752;2022-10-22T09:08:45;101210.06;;;18.62
66795;BMP280;53698;52.738;4.752;2022-10-22T09:13:54;101220.34;;;18.62
66795;BMP280;53698;52.738;4.752;2022-10-22T09:16:28;101245.13;;;18.32
66795;BMP280;53698;52.738;4.752;2022-10-22T09:19:08;101245.84;;;18.07
66795;BMP280;53698;52.738;4.752;2022-10-22T09:24:08;101255.66;;;17.75
66795;BMP280;53698;52.738;4.752;2022-10-22T09:26:36;101255.56;;;17.69
66795;BMP280;53698;52.738;4.752;2022-10-22T09:29:02;101261.53;;;17.34
66795;BMP280;53698;52.738;4.752;2022-10-22T09:31:28;101254.88;;;17.41
66795;BMP280;53698;52.738;4.752;2022-10-22T09:33:54;101261.06;;;17.36
66795;BMP280;53698;52.738;4.752;2022-10-22T09:36:21;101265.00;;;17.30
66795;BMP280;53698;52.738;4.752;2022-10-22T09:38:50;101265.06;;;17.35
66795;BMP280;53698;52.738;4.752;2022-10-22T09:41:16;101263.59;;;17.53
66795;BMP280;53698;52.738;4.752;2022-10-22T09:43:45;101266.88;;;17.71
66795;BMP280;53698;52.738;4.752;2022-10-22T09:46:17;101268.34;;;18.00
66795;BMP280;53698;52.738;4.752;2022-10-22T09:48:47;101266.03;;;17.99
66795;BMP280;53698;52.738;4.752;2022-10-22T09:53:42;101276.78;;;18.31
66795;BMP280;53698;52.738;4.752;2022-10-22T09:56:12;101288.91;;;18.38
66795;BMP280;53698;52.738;4.752;2022-10-22T09:58:42;101285.66;;;18.59
66795;BMP280;53698;52.738;4.752;2022-10-22T10:01:14;101291.81;;;18.68
66795;BMP280;53698;52.738;4.752;2022-10-22T10:03:40;101297.91;;;18.72
66795;BMP280;53698;52.738;4.752;2022-10-22T10:06:05;101290.13;;;18.96
66795;BMP280;53698;52.738;4.752;2022-10-22T10:08:31;101306.84;;;18.87
66795;BMP280;53698;52.738;4.752;2022-10-22T10:10:58;101307.13;;;18.89
66795;BMP280;53698;52.738;4.752;2022-10-22T10:16:14;101303.66;;;19.19
66795;BMP280;53698;52.738;4.752;2022-10-22T10:19:20;101310.50;;;19.28
66795;BMP280;53698;52.738;4.752;2022-10-22T10:27:08;101317.84;;;19.31
66795;BMP280;53698;52.738;4.752;2022-10-22T10:32:25;101334.59;;;19.47
66795;BMP280;53698;52.738;4.752;2022-10-22T10:34:53;101330.47;;;19.62
66795;BMP280;53698;52.738;4.752;2022-10-22T10:37:21;101327.38;;;19.85
66795;BMP280;53698;52.738;4.752;2022-10-22T10:42:26;101332.16;;;20.25
66795;BMP280;53698;52.738;4.752;2022-10-22T11:00:40;101350.09;;;19.94
66795;BMP280;53698;52.738;4.752;2022-10-22T11:05:56;101350.63;;;19.98
66795;BMP280;53698;52.738;4.752;2022-10-22T11:08:35;101362.78;;;20.06
66795;BMP280;53698;52.738;4.752;2022-10-22T11:11:05;101352.66;;;20.39
66795;BMP280;53698;52.738;4.752;2022-10-22T11:13:33;101353.31;;;20.74
66795;BMP280;53698;52.738;4.752;2022-10-22T11:16:19;101358.22;;;21.01
66795;BMP280;53698;52.738;4.752;2022-10-22T11:21:24;101377.97;;;20.56
66795;BMP280;53698;52.738;4.752;2022-10-22T11:23:59;101381.00;;;20.64
66795;BMP280;53698;52.738;4.752;2022-10-22T11:26:28;101390.88;;;20.70
66795;BMP280;53698;52.738;4.752;2022-10-22T11:28:56;101387.13;;;20.78
66795;BMP280;53698;52.738;4.752;2022-10-22T11:31:23;101378.88;;;21.00
66795;BMP280;53698;52.738;4.752;2022-10-22T11:36:33;101376.25;;;21.75
66795;BMP280;53698;52.738;4.752;2022-10-22T11:39:01;101371.09;;;22.53
66795;BMP280;53698;52.738;4.752;2022-10-22T11:41:27;101367.28;;;23.12
66795;BMP280;53698;52.738;4.752;2022-10-22T11:43:56;101370.19;;;23.69
66795;BMP280;53698;52.738;4.752;2022-10-22T11:51:45;101378.81;;;22.87
66795;BMP280;53698;52.738;4.752;2022-10-22T11:57:11;101382.31;;;22.10
66795;BMP280;53698;52.738;4.752;2022-10-22T11:59:47;101386.84;;;21.44
66795;BMP280;53698;52.738;4.752;2022-10-22T12:04:46;101380.28;;;22.27
66795;BMP280;53698;52.738;4.752;2022-10-22T12:09:56;101379.19;;;22.62
66795;BMP280;53698;52.738;4.752;2022-10-22T12:12:21;101382.53;;;22.18
66795;BMP280;53698;52.738;4.752;2022-10-22T12:14:53;101399.72;;;21.79
66795;BMP280;53698;52.738;4.752;2022-10-22T12:17:19;101383.22;;;22.50
66795;BMP280;53698;52.738;4.752;2022-10-22T12:19:50;101381.34;;;23.35
66795;BMP280;53698;52.738;4.752;2022-10-22T12:22:25;101381.97;;;23.85
66795;BMP280;53698;52.738;4.752;2022-10-22T12:24:51;101381.63;;;23.65
66795;BMP280;53698;52.738;4.752;2022-10-22T12:27:22;101374.00;;;23.37
66795;BMP280;53698;52.738;4.752;2022-10-22T12:29:48;101380.47;;;23.50
66795;BMP280;53698;52.738;4.752;2022-10-22T12:32:14;101381.16;;;23.96
66795;BMP280;53698;52.738;4.752;2022-10-22T12:34:46;101379.91;;;24.66
66795;BMP280;53698;52.738;4.752;2022-10-22T12:37:12;101365.19;;;25.25
66795;BMP280;53698;52.738;4.752;2022-10-22T12:39:38;101368.94;;;25.76
66795;BMP280;53698;52.738;4.752;2022-10-22T12:42:03;101370.91;;;25.81
66795;BMP280;53698;52.738;4.752;2022-10-22T12:44:29;101370.97;;;25.27
66795;BMP280;53698;52.738;4.752;2022-10-22T12:46:56;101375.09;;;25.57
66795;BMP280;53698;52.738;4.752;2022-10-22T12:49:24;101380.13;;;25.76
66795;BMP280;53698;52.738;4.752;2022-10-22T12:51:49;101374.91;;;25.86
66795;BMP280;53698;52.738;4.752;2022-10-22T12:54:21;101381.94;;;26.17
66795;BMP280;53698;52.738;4.752;2022-10-22T12:56:47;101378.38;;;25.43
66795;BMP280;53698;52.738;4.752;2022-10-22T13:01:39;101391.38;;;24.81
66795;BMP280;53698;52.738;4.752;2022-10-22T13:12:10;101421.44;;;21.75
66795;BMP280;53698;52.738;4.752;2022-10-22T13:14:25;101416.94;;;21.83
66795;BMP280;53698;52.738;4.752;2022-10-22T13:17:05;101408.56;;;23.08
66795;BMP280;53698;52.738;4.752;2022-10-22T13:19:38;101404.22;;;23.96
66795;BMP280;53698;52.738;4.752;2022-10-22T13:22:20;101398.06;;;24.96
66795;BMP280;53698;52.738;4.752;2022-10-22T13:24:49;101391.22;;;24.50
66795;BMP280;53698;52.738;4.752;2022-10-22T13:27:15;101392.47;;;25.14
66795;BMP280;53698;52.738;4.752;2022-10-22T13:29:40;101395.13;;;25.43
66795;BMP280;53698;52.738;4.752;2022-10-22T13:32:16;101395.16;;;24.37
66795;BMP280;53698;52.738;4.752;2022-10-22T13:34:45;101416.88;;;22.52
66795;BMP280;53698;52.738;4.752;2022-10-22T13:37:10;101416.59;;;21.38
66795;BMP280;53698;52.738;4.752;2022-10-22T13:39:35;101407.31;;;21.73
66795;BMP280;53698;52.738;4.752;2022-10-22T13:42:01;101417.63;;;22.58
66795;BMP280;53698;52.738;4.752;2022-10-22T13:44:26;101404.28;;;23.51
66795;BMP280;53698;52.738;4.752;2022-10-22T13:46:51;101407.94;;;24.04
66795;BMP280;53698;52.738;4.752;2022-10-22T13:49:17;101396.81;;;24.50
66795;BMP280;53698;52.738;4.752;2022-10-22T13:51:43;101400.03;;;24.60
66795;BMP280;53698;52.738;4.752;2022-10-22T13:54:12;101402.78;;;24.65
66795;BMP280;53698;52.738;4.752;2022-10-22T13:56:38;101409.03;;;25.48
66795;BMP280;53698;52.738;4.752;2022-10-22T13:59:03;101403.97;;;25.77
66795;BMP280;53698;52.738;4.752;2022-10-22T14:01:28;101403.75;;;26.06
66795;BMP280;53698;52.738;4.752;2022-10-22T14:03:54;101414.34;;;25.10
66795;BMP280;53698;52.738;4.752;2022-10-22T14:06:22;101410.00;;;25.51
66795;BMP280;53698;52.738;4.752;2022-10-22T14:08:55;101412.13;;;24.67
66795;BMP280;53698;52.738;4.752;2022-10-22T14:11:21;101423.75;;;24.19
66795;BMP280;53698;52.738;4.752;2022-10-22T14:13:46;101409.41;;;24.10
66795;BMP280;53698;52.738;4.752;2022-10-22T14:16:18;101423.72;;;23.96
66795;BMP280;53698;52.738;4.752;2022-10-22T14:18:44;101416.16;;;23.91
66795;BMP280;53698;52.738;4.752;2022-10-22T14:21:09;101417.97;;;23.49
66795;BMP280;53698;52.738;4.752;2022-10-22T14:23:36;101428.00;;;23.18
66795;BMP280;53698;52.738;4.752;2022-10-22T14:26:03;101426.41;;;22.78
66795;BMP280;53698;52.738;4.752;2022-10-22T14:28:31;101440.44;;;21.98
66795;BMP280;53698;52.738;4.752;2022-10-22T14:30:56;101441.34;;;21.41
66795;BMP280;53698;52.738;4.752;2022-10-22T14:33:26;101448.97;;;20.95
66795;BMP280;53698;52.738;4.752;2022-10-22T14:35:52;101452.81;;;20.26
66795;BMP280;53698;52.738;4.752;2022-10-22T14:38:17;101461.31;;;19.82
66795;BMP280;53698;52.738;4.752;2022-10-22T14:40:43;101459.38;;;19.69
66795;BMP280;53698;52.738;4.752;2022-10-22T14:43:13;101461.25;;;19.52
66795;BMP280;53698;52.738;4.752;2022-10-22T14:45:38;101459.44;;;19.30
66795;BMP280;53698;52.738;4.752;2022-10-22T14:48:04;101459.97;;;19.09
66795;BMP280;53698;52.738;4.752;2022-10-22T14:50:29;101468.47;;;18.86
66795;BMP280;53698;52.738;4.752;2022-10-22T14:52:54;101463.91;;;18.83
66795;BMP280;53698;52.738;4.752;2022-10-22T14:55:21;101469.16;;;19.01
66795;BMP280;53698;52.738;4.752;2022-10-22T14:57:47;101469.66;;;18.99
66795;BMP280;53698;52.738;4.752;2022-10-22T15:00:13;101468.63;;;18.77
66795;BMP280;53698;52.738;4.752;2022-10-22T15:02:39;101475.88;;;18.61
66795;BMP280;53698;52.738;4.752;2022-10-22T15:05:04;101469.03;;;18.70
66795;BMP280;53698;52.738;4.752;2022-10-22T15:07:30;101467.75;;;18.71
66795;BMP280;53698;52.738;4.752;2022-10-22T15:09:55;101481.97;;;18.65
66795;BMP280;53698;52.738;4.752;2022-10-22T15:12:20;101483.13;;;18.72
66795;BMP280;53698;52.738;4.752;2022-10-22T15:14:46;101477.63;;;18.78
66795;BMP280;53698;52.738;4.752;2022-10-22T15:17:12;101478.72;;;18.66
66795;BMP280;53698;52.738;4.752;2022-10-22T15:19:37;101478.84;;;18.57
66795;BMP280;53698;52.738;4.752;2022-10-22T15:22:02;101488.09;;;18.54
66795;BMP280;53698;52.738;4.752;2022-10-22T15:24:28;101478.44;;;18.64
66795;BMP280;53698;52.738;4.752;2022-10-22T15:26:53;101489.66;;;18.41
66795;BMP280;53698;52.738;4.752;2022-10-22T15:29:19;101496.94;;;18.58